Time;durP1;ratioP1;P1;durP2;ratioP2;P2;SDS_P1;SDS_P2;PMS_P1;PMS_P2;Temp;Humidity;BMP_temperature;BMP_pressure;BME280_temperature;BME280_humidity;BME280_pressure;Samples;Min_cycle;Max_cycle;Signal;HPM_P1;HPM_P2
2023/05/10 00:01:14;;;;;;;3.70;3.00;;;;;;;5.71;80.62;99983.19;109595;1252;62335;-72
2023/05/10 00:03:41;;;;;;;3.80;3.10;;;;;;;5.68;80.78;99983.94;109525;1253;75692;-73
2023/05/10 00:06:08;;;;;;;5.60;3.00;;;;;;;5.64;82.44;99984.98;109555;1253;69863;-73
2023/05/10 00:08:35;;;;;;;4.10;3.30;;;;;;;5.57;83.28;99980.58;109560;1253;74762;-72
2023/05/10 00:11:02;;;;;;;4.10;3.10;;;;;;;5.54;84.40;99984.03;109524;1253;60731;-73
2023/05/10 00:13:29;;;;;;;4.10;2.40;;;;;;;5.51;82.44;99980.89;109593;1252;62233;-73
2023/05/10 00:15:57;;;;;;;3.00;2.20;;;;;;;5.53;79.65;99982.36;109151;1253;75253;-73
2023/05/10 00:18:23;;;;;;;3.50;2.20;;;;;;;5.57;77.49;99979.41;109577;1253;70190;-72
2023/05/10 00:20:50;;;;;;;4.90;2.10;;;;;;;5.60;75.89;99979.33;109597;1254;74678;-72
2023/05/10 00:23:17;;;;;;;2.40;2.10;;;;;;;5.64;75.17;99972.52;109485;1253;61950;-73
2023/05/10 00:25:44;;;;;;;2.90;2.20;;;;;;;5.68;75.15;99977.30;109507;1253;60681;-73
2023/05/10 00:28:11;;;;;;;5.00;2.90;;;;;;;5.71;74.93;99971.73;109544;1253;74338;-72
2023/05/10 00:30:37;;;;;;;3.40;2.80;;;;;;;5.76;75.19;99973.42;109575;1254;68787;-72
2023/05/10 00:33:04;;;;;;;5.00;3.90;;;;;;;5.78;77.69;99978.30;109570;1252;73604;-72
2023/05/10 00:35:31;;;;;;;6.20;4.40;;;;;;;5.72;82.63;99977.77;109425;1254;60200;-73
2023/05/10 00:37:58;;;;;;;3.70;3.30;;;;;;;5.60;85.74;99975.60;109581;1253;60943;-73
2023/05/10 00:40:25;;;;;;;4.20;3.60;;;;;;;5.53;86.83;99976.73;109529;1253;76612;-73
2023/05/10 00:42:55;;;;;;;4.70;4.00;;;;;;;5.45;89.65;99978.59;109569;1253;68825;-72
2023/05/10 00:45:22;;;;;;;6.20;4.00;;;;;;;5.38;91.15;99976.80;109378;1254;73735;-73
2023/05/10 00:47:51;;;;;;;4.70;4.00;;;;;;;5.29;93.11;99979.60;109512;1252;58946;-72
2023/05/10 00:50:18;;;;;;;6.10;4.30;;;;;;;5.19;93.90;99978.48;109533;1253;61271;-73
2023/05/10 00:52:45;;;;;;;5.30;4.30;;;;;;;5.11;94.66;99975.84;109448;1253;75188;-73
2023/05/10 00:55:12;;;;;;;3.70;3.30;;;;;;;5.04;93.98;99974.69;109551;1253;68257;-73
2023/05/10 00:57:39;;;;;;;3.90;3.50;;;;;;;4.96;93.38;99973.11;109589;1253;74900;-72
2023/05/10 01:00:06;;;;;;;5.60;3.90;;;;;;;4.90;94.37;99971.66;109538;1253;59700;-72
2023/05/10 01:02:34;;;;;;;5.40;3.70;;;;;;;4.84;97.07;99971.13;109345;1253;61409;-72
2023/05/10 01:05:02;;;;;;;5.20;4.10;;;;;;;4.76;99.22;99969.48;109525;1253;74733;-72
2023/05/10 01:07:29;;;;;;;5.90;4.30;;;;;;;4.68;100.00;99969.94;109660;1251;67123;-73
2023/05/10 01:09:56;;;;;;;4.60;3.80;;;;;;;4.61;100.00;99967.86;109470;1253;74539;-73
2023/05/10 01:12:22;;;;;;;5.50;4.60;;;;;;;4.55;100.00;99968.92;109316;1251;59829;-72
2023/05/10 01:14:49;;;;;;;5.30;3.70;;;;;;;4.46;100.00;99969.77;109598;1251;61536;-73
2023/05/10 01:17:16;;;;;;;4.60;3.70;;;;;;;4.39;100.00;99968.27;109576;1251;74907;-72
2023/05/10 01:19:43;;;;;;;10.50;4.20;;;;;;;4.31;100.00;99966.71;109542;1251;69596;-72
2023/05/10 01:22:13;;;;;;;4.40;3.60;;;;;;;4.27;100.00;99966.02;109583;1251;75024;-72
2023/05/10 01:24:46;;;;;;;5.20;4.10;;;;;;;4.21;100.00;99959.30;109575;1252;61728;-72
2023/05/10 01:27:40;;;;;;;6.60;5.10;;;;;;;4.12;100.00;99961.75;109491;1253;60751;-72
2023/05/10 01:30:32;;;;;;;5.80;4.80;;;;;;;4.02;100.00;99965.34;109600;1250;77003;-72
2023/05/10 01:33:26;;;;;;;6.80;5.70;;;;;;;3.93;100.00;99958.00;109535;1251;68394;-72
2023/05/10 01:36:29;;;;;;;7.30;4.90;;;;;;;3.82;100.00;99962.48;109481;1251;74631;-71
2023/05/10 01:39:03;;;;;;;6.00;5.10;;;;;;;3.71;100.00;99962.05;109586;1253;60166;-72
2023/05/10 01:41:39;;;;;;;5.00;4.50;;;;;;;3.63;100.00;99958.45;109361;1257;61450;-72
2023/05/10 01:44:31;;;;;;;5.90;4.40;;;;;;;3.57;100.00;99957.04;109455;1251;76531;-72
2023/05/10 01:47:09;;;;;;;6.60;4.60;;;;;;;3.51;100.00;99955.36;109585;1251;69716;-72
2023/05/10 01:49:48;;;;;;;7.80;5.00;;;;;;;3.50;100.00;99954.25;109349;1251;74685;-72
2023/05/10 01:52:19;;;;;;;7.50;5.00;;;;;;;3.47;100.00;99957.46;109440;1251;60927;-72
2023/05/10 01:54:53;;;;;;;7.00;5.60;;;;;;;3.42;100.00;99958.50;109419;1251;62352;-73
2023/05/10 01:57:20;;;;;;;7.00;4.70;;;;;;;3.38;100.00;99959.88;109395;1254;75349;-72
2023/05/10 01:59:48;;;;;;;6.10;4.20;;;;;;;3.35;100.00;99964.14;109440;1251;69872;-72
2023/05/10 02:02:15;;;;;;;7.70;5.10;;;;;;;3.35;100.00;99963.96;109536;1253;71808;-73
2023/05/10 02:04:43;;;;;;;8.60;4.40;;;;;;;3.37;100.00;99965.55;109412;1254;59264;-73
2023/05/10 02:07:10;;;;;;;6.30;4.10;;;;;;;3.41;100.00;99970.20;109445;1253;61246;-73
2023/05/10 02:09:36;;;;;;;5.30;3.70;;;;;;;3.40;100.00;99970.23;109378;1251;75515;-73
2023/05/10 02:12:04;;;;;;;4.90;3.60;;;;;;;3.39;100.00;99974.52;109527;1254;70095;-73
2023/05/10 02:14:32;;;;;;;5.20;3.60;;;;;;;3.36;100.00;99967.52;109281;1251;75028;-72
2023/05/10 02:16:59;;;;;;;6.00;4.00;;;;;;;3.32;100.00;99974.35;109368;1253;61872;-72
2023/05/10 02:19:27;;;;;;;9.10;3.60;;;;;;;3.30;100.00;99977.30;109589;1254;60871;-72
2023/05/10 02:21:55;;;;;;;4.30;3.40;;;;;;;3.27;100.00;99973.69;109528;1251;76947;-72
2023/05/10 02:24:22;;;;;;;3.40;3.10;;;;;;;3.24;100.00;99971.42;109566;1251;69127;-72
2023/05/10 02:26:49;;;;;;;3.00;2.60;;;;;;;3.25;100.00;99972.23;109577;1251;74444;-71
2023/05/10 02:29:16;;;;;;;4.60;3.00;;;;;;;3.27;100.00;99974.85;109552;1251;60182;-71
2023/05/10 02:31:43;;;;;;;4.80;3.00;;;;;;;3.31;100.00;99973.20;109382;1254;62245;-71
2023/05/10 02:34:10;;;;;;;3.40;3.00;;;;;;;3.35;100.00;99974.97;109342;1251;75627;-71
2023/05/10 02:36:38;;;;;;;5.80;3.30;;;;;;;3.41;100.00;99972.96;109564;1251;68567;-71
2023/05/10 02:39:09;;;;;;;4.90;3.10;;;;;;;3.47;100.00;99969.71;109393;1252;73081;-71
2023/05/10 02:41:35;;;;;;;4.50;3.30;;;;;;;3.57;100.00;99968.30;109602;1251;61675;-71
2023/05/10 02:44:02;;;;;;;3.60;3.00;;;;;;;3.68;100.00;99970.55;109292;1251;61364;-71
2023/05/10 02:46:30;;;;;;;4.40;3.30;;;;;;;3.78;100.00;99969.45;109604;1256;76879;-70
2023/05/10 02:48:56;;;;;;;4.20;2.70;;;;;;;3.88;100.00;99968.73;109491;1251;67113;-71
2023/05/10 02:51:25;;;;;;;3.40;2.60;;;;;;;3.97;100.00;99965.38;109592;1254;71766;-72
2023/05/10 02:53:51;;;;;;;4.00;2.90;;;;;;;4.07;100.00;99961.64;109510;1251;61199;-72
2023/05/10 02:56:26;;;;;;;3.30;2.80;;;;;;;4.15;100.00;99962.75;109607;1254;61570;-73
2023/05/10 02:58:53;;;;;;;4.10;2.60;;;;;;;4.25;100.00;99959.31;109521;1254;74724;-72
2023/05/10 03:01:20;;;;;;;3.70;2.70;;;;;;;4.34;100.00;99958.21;109460;1251;66462;-72
2023/05/10 03:03:47;;;;;;;3.40;2.60;;;;;;;4.44;100.00;99959.44;109409;1251;74002;-72
2023/05/10 03:06:14;;;;;;;4.20;2.80;;;;;;;4.50;100.00;99957.86;109465;1251;61503;-71
2023/05/10 03:08:41;;;;;;;4.30;3.40;;;;;;;4.58;100.00;99954.07;109613;1251;62499;-72
2023/05/10 03:11:39;;;;;;;6.60;3.90;;;;;;;4.69;100.00;99954.63;109523;1254;74847;-72
2023/05/10 03:14:21;;;;;;;4.80;3.70;;;;;;;4.82;100.00;99955.34;109504;1251;69255;-73
2023/05/10 03:16:56;;;;;;;5.70;3.80;;;;;;;4.96;100.00;99955.57;109609;1251;74473;-72
2023/05/10 03:19:30;;;;;;;5.10;3.60;;;;;;;5.11;99.91;99952.98;109534;1256;61635;-73
2023/05/10 03:21:59;;;;;;;6.60;3.30;;;;;;;5.27;98.92;99954.42;109283;1251;61099;-72
2023/05/10 03:24:27;;;;;;;6.30;3.80;;;;;;;5.47;97.58;99953.10;109313;1251;76107;-72
2023/05/10 03:26:56;;;;;;;8.30;3.80;;;;;;;5.72;96.05;99954.73;109490;1251;70154;-70
2023/05/10 03:29:23;;;;;;;5.00;3.30;;;;;;;5.97;94.35;99956.88;109517;1255;72561;-72
2023/05/10 03:31:50;;;;;;;6.10;3.50;;;;;;;6.25;92.13;99954.31;109511;1254;60867;-72
2023/05/10 03:34:23;;;;;;;5.50;3.40;;;;;;;6.53;91.41;99954.80;109253;1260;61832;-73
2023/05/10 03:36:51;;;;;;;5.40;3.80;;;;;;;6.83;89.28;99952.48;109420;1251;75921;-72
2023/05/10 03:39:21;;;;;;;3.70;2.90;;;;;;;7.14;89.56;99956.06;109552;1251;69930;-73
2023/05/10 03:41:55;;;;;;;5.70;3.40;;;;;;;7.48;88.48;99952.11;109477;1251;74611;-72
2023/05/10 03:44:29;;;;;;;4.70;3.60;;;;;;;7.80;85.43;99949.61;109409;1251;58947;-73
2023/05/10 03:46:56;;;;;;;5.00;3.30;;;;;;;8.13;82.41;99944.36;109503;1251;61536;-72
2023/05/10 03:49:23;;;;;;;4.40;3.30;;;;;;;8.49;79.17;99942.63;109464;1251;75873;-72
2023/05/10 03:51:51;;;;;;;5.60;3.30;;;;;;;8.85;75.43;99941.98;109398;1251;69839;-72
2023/05/10 03:54:20;;;;;;;3.10;2.80;;;;;;;9.19;72.35;99942.79;109530;1251;73727;-72
2023/05/10 03:56:47;;;;;;;3.50;2.80;;;;;;;9.53;69.68;99940.10;109548;1251;61394;-72
2023/05/10 03:59:15;;;;;;;4.70;3.10;;;;;;;9.78;68.29;99937.44;109425;1251;60308;-73
2023/05/10 04:01:41;;;;;;;3.90;3.10;;;;;;;10.15;66.80;99932.63;109521;1251;73964;-73
2023/05/10 04:04:08;;;;;;;5.10;3.50;;;;;;;10.42;65.10;99932.80;109499;1251;69322;-73
2023/05/10 04:06:35;;;;;;;6.20;3.30;;;;;;;10.72;64.08;99927.69;109522;1253;71664;-73
2023/05/10 04:09:04;;;;;;;5.10;2.70;;;;;;;11.13;62.56;99927.24;109368;1252;61838;-72
2023/05/10 04:11:31;;;;;;;6.00;2.70;;;;;;;11.49;61.34;99929.01;109535;1254;60395;-72
2023/05/10 04:13:58;;;;;;;3.10;2.30;;;;;;;11.86;59.72;99931.75;109524;1254;75064;-72
2023/05/10 04:16:24;;;;;;;6.00;2.80;;;;;;;12.19;57.88;99928.87;109564;1253;68964;-71
2023/05/10 04:18:51;;;;;;;3.90;2.70;;;;;;;12.50;56.49;99929.20;109537;1254;75113;-72
2023/05/10 04:21:18;;;;;;;5.50;3.00;;;;;;;12.85;54.67;99931.52;109476;1253;62335;-72
2023/05/10 04:23:45;;;;;;;5.80;2.60;;;;;;;13.20;53.41;99927.94;109527;1254;61921;-76
2023/05/10 04:26:12;;;;;;;3.30;2.40;;;;;;;13.55;52.14;99921.98;109526;1254;76444;-74
2023/05/10 04:28:39;;;;;;;2.80;2.40;;;;;;;13.91;50.48;99922.92;109419;1254;68579;-71
2023/05/10 04:31:07;;;;;;;5.20;2.70;;;;;;;14.24;48.63;99918.44;109504;1253;74004;-73
2023/05/10 04:33:35;;;;;;;3.30;2.90;;;;;;;14.53;46.67;99911.19;109517;1253;62652;-72
2023/05/10 04:36:02;;;;;;;4.10;2.60;;;;;;;14.78;45.00;99908.59;109544;1252;61326;-72
2023/05/10 04:38:30;;;;;;;2.30;2.10;;;;;;;15.05;44.12;99913.49;109491;1253;75840;-69
2023/05/10 04:41:09;;;;;;;4.60;2.30;;;;;;;15.35;43.81;99915.78;109531;1254;69242;-71
2023/05/10 04:43:36;;;;;;;3.90;2.80;;;;;;;15.74;42.55;99919.11;109412;1254;73520;-74
2023/05/10 04:46:03;;;;;;;3.50;2.20;;;;;;;16.07;41.86;99915.84;109410;1254;62440;-72
2023/05/10 04:48:30;;;;;;;4.40;2.50;;;;;;;16.38;41.38;99918.05;109458;1253;60926;-68
2023/05/10 04:50:57;;;;;;;2.90;2.20;;;;;;;16.68;40.73;99920.73;109458;1254;76221;-69
2023/05/10 04:53:24;;;;;;;3.50;2.50;;;;;;;16.98;39.70;99923.05;109480;1252;69112;-72
2023/05/10 04:55:51;;;;;;;3.20;2.30;;;;;;;17.15;38.25;99925.48;109509;1254;73173;-72
2023/05/10 04:58:17;;;;;;;4.30;2.30;;;;;;;17.29;37.58;99927.23;109501;1253;59779;-72
2023/05/10 05:00:44;;;;;;;2.20;1.90;;;;;;;17.61;37.09;99923.67;109447;1254;62784;-75
2023/05/10 05:03:11;;;;;;;3.00;2.30;;;;;;;18.00;36.54;99922.87;109542;1252;75383;-72
2023/05/10 05:05:38;;;;;;;2.90;2.00;;;;;;;18.39;35.99;99921.52;109422;1253;68957;-71
2023/05/10 05:08:05;;;;;;;2.60;1.80;;;;;;;18.80;34.76;99919.86;109442;1253;75151;-71
2023/05/10 05:10:31;;;;;;;3.70;1.80;;;;;;;19.15;33.60;99922.41;109476;1254;61229;-71
2023/05/10 05:12:58;;;;;;;4.10;2.10;;;;;;;19.50;32.59;99920.47;109537;1252;61202;-71
2023/05/10 05:15:25;;;;;;;3.80;1.90;;;;;;;19.66;32.09;99917.16;109453;1253;75499;-73
2023/05/10 05:17:52;;;;;;;2.80;1.60;;;;;;;19.66;31.45;99917.88;109570;1254;67106;-72
2023/05/10 05:20:19;;;;;;;3.30;1.40;;;;;;;19.80;30.57;99913.16;109407;1254;74527;-71
2023/05/10 05:22:45;;;;;;;2.10;1.60;;;;;;;20.02;30.27;99915.48;109261;1258;62730;-74
2023/05/10 05:25:12;;;;;;;2.70;1.50;;;;;;;20.44;29.54;99916.56;109449;1254;62129;-74
2023/05/10 05:27:39;;;;;;;2.60;1.70;;;;;;;20.86;29.04;99916.69;109346;1254;75326;-72
2023/05/10 05:30:06;;;;;;;3.00;1.80;;;;;;;21.34;28.92;99915.75;109513;1254;69899;-70
2023/05/10 05:32:33;;;;;;;3.50;2.10;;;;;;;21.86;28.27;99912.70;109473;1254;71100;-71
2023/05/10 05:35:00;;;;;;;7.80;1.90;;;;;;;22.18;27.26;99914.11;109476;1254;60491;-72
2023/05/10 05:37:27;;;;;;;1.90;1.70;;;;;;;22.25;26.25;99919.45;109563;1252;58861;-71
2023/05/10 05:39:54;;;;;;;5.20;1.80;;;;;;;22.14;25.87;99916.11;109479;1252;76109;-71
2023/05/10 05:42:22;;;;;;;3.70;1.60;;;;;;;22.18;25.48;99925.77;109534;1253;70503;-69
2023/05/10 05:44:48;;;;;;;2.90;2.00;;;;;;;21.95;25.08;99930.15;109390;1254;75026;-72
2023/05/10 05:47:15;;;;;;;4.00;1.90;;;;;;;21.57;25.34;99930.21;109456;1253;62168;-72
2023/05/10 05:49:45;;;;;;;4.20;2.00;;;;;;;21.13;25.95;99930.26;109318;1254;62525;-74
2023/05/10 05:52:12;;;;;;;3.30;1.80;;;;;;;20.28;26.82;99929.42;109490;1252;76962;-76
2023/05/10 05:54:39;;;;;;;4.10;2.30;;;;;;;19.59;27.42;99934.73;109552;1253;70560;-72
2023/05/10 05:57:06;;;;;;;5.70;1.80;;;;;;;18.88;27.97;99935.83;109455;1253;73821;-69
2023/05/10 05:59:33;;;;;;;4.40;2.30;;;;;;;18.09;28.29;99946.47;109309;1253;61066;-69
2023/05/10 06:02:00;;;;;;;5.80;1.80;;;;;;;17.36;29.02;99948.91;109522;1253;61062;-69
2023/05/10 06:04:27;;;;;;;2.20;2.00;;;;;;;16.73;29.95;99948.81;109452;1254;76643;-68
2023/05/10 06:06:54;;;;;;;3.50;2.00;;;;;;;16.32;30.74;99947.65;109447;1254;67572;-71
2023/05/10 06:09:23;;;;;;;7.60;2.10;;;;;;;16.13;31.32;99948.86;109482;1252;74302;-72
2023/05/10 06:11:50;;;;;;;5.20;1.90;;;;;;;16.69;31.69;99945.55;109560;1253;61434;-70
2023/05/10 06:14:17;;;;;;;5.50;2.20;;;;;;;17.70;31.08;99948.20;109442;1254;62532;-68
2023/05/10 06:16:43;;;;;;;4.40;2.40;;;;;;;18.84;29.71;99939.44;109306;1257;75976;-66
2023/05/10 06:19:10;;;;;;;4.30;1.80;;;;;;;19.74;28.60;99933.63;109550;1254;68485;-69
2023/05/10 06:21:37;;;;;;;4.10;2.10;;;;;;;20.51;27.34;99930.08;109410;1253;74650;-69
2023/05/10 06:24:06;;;;;;;4.90;2.20;;;;;;;21.08;27.25;99928.38;109454;1254;61371;-74
2023/05/10 06:26:33;;;;;;;7.00;2.10;;;;;;;21.70;26.83;99927.94;109376;1253;60498;-73
2023/05/10 06:29:00;;;;;;;7.40;2.90;;;;;;;22.36;25.91;99932.08;109460;1253;76016;-71
2023/05/10 06:31:26;;;;;;;5.80;2.00;;;;;;;22.60;25.11;99936.45;109553;1253;66749;-72
2023/05/10 06:33:53;;;;;;;7.10;2.20;;;;;;;22.01;25.32;99936.79;109404;1254;75153;-69
2023/05/10 06:36:24;;;;;;;7.30;1.90;;;;;;;21.54;26.17;99941.38;109374;1254;58968;-67
2023/05/10 06:38:51;;;;;;;5.40;2.30;;;;;;;21.11;26.07;99944.55;109349;1253;62009;-68
2023/05/10 06:41:18;;;;;;;3.30;1.80;;;;;;;20.05;27.06;99947.14;109371;1254;77082;-72
2023/05/10 06:43:44;;;;;;;4.90;2.10;;;;;;;19.24;28.22;99952.30;109314;1254;68749;-67
2023/05/10 06:46:11;;;;;;;6.10;2.40;;;;;;;19.00;28.90;99952.94;109352;1253;74819;-69
2023/05/10 06:48:38;;;;;;;8.10;2.10;;;;;;;19.39;29.00;99951.39;109384;1254;61223;-69
2023/05/10 06:51:05;;;;;;;4.20;1.90;;;;;;;20.18;28.92;99946.77;109402;1254;61544;-68
2023/05/10 06:53:32;;;;;;;6.80;2.00;;;;;;;20.83;27.84;99941.96;109393;1254;75436;-69
2023/05/10 06:55:59;;;;;;;2.20;1.60;;;;;;;21.98;26.20;99939.59;109443;1253;69976;-69
2023/05/10 06:58:26;;;;;;;2.80;1.40;;;;;;;22.57;24.06;99935.67;109501;1253;73988;-70
2023/05/10 07:00:53;;;;;;;3.20;1.50;;;;;;;22.42;23.63;99937.27;109450;1254;62662;-67
2023/05/10 07:03:19;;;;;;;3.00;1.30;;;;;;;23.04;22.99;99936.39;109556;1253;61710;-70
2023/05/10 07:05:46;;;;;;;6.50;2.00;;;;;;;23.88;22.03;99928.77;109521;1253;76008;-69
2023/05/10 07:08:13;;;;;;;2.00;1.30;;;;;;;24.78;20.99;99924.38;109598;1253;69016;-69
2023/05/10 07:10:40;;;;;;;2.10;1.20;;;;;;;25.44;20.22;99930.00;109451;1253;72212;-69
2023/05/10 07:13:07;;;;;;;1.40;1.10;;;;;;;25.75;19.39;99926.36;109483;1254;61119;-71
2023/05/10 07:15:34;;;;;;;2.40;1.40;;;;;;;25.97;19.38;99928.13;109479;1254;62162;-70
2023/05/10 07:18:01;;;;;;;3.80;1.20;;;;;;;26.25;18.95;99928.83;109530;1253;76730;-69
2023/05/10 07:20:28;;;;;;;2.60;1.50;;;;;;;26.24;18.55;99922.55;109576;1253;69306;-70
2023/05/10 07:22:54;;;;;;;4.20;1.40;;;;;;;26.48;18.35;99927.02;109496;1253;74646;-68
2023/05/10 07:25:21;;;;;;;4.40;1.30;;;;;;;26.62;18.41;99923.89;109542;1252;62548;-68
2023/05/10 07:27:48;;;;;;;1.70;1.50;;;;;;;26.85;18.05;99927.04;109548;1253;60276;-69
2023/05/10 07:30:15;;;;;;;3.80;1.10;;;;;;;26.88;17.19;99922.31;109535;1252;76418;-70
2023/05/10 07:32:42;;;;;;;4.40;1.30;;;;;;;26.95;17.44;99925.56;109610;1253;70277;-70
2023/05/10 07:35:09;;;;;;;5.40;1.30;;;;;;;27.09;17.23;99923.77;109549;1253;73640;-68
2023/05/10 07:37:35;;;;;;;2.10;1.40;;;;;;;27.13;16.77;99922.74;109503;1254;62371;-75
2023/05/10 07:40:03;;;;;;;4.50;1.40;;;;;;;27.21;16.79;99922.94;109578;1253;60883;-69
2023/05/10 07:42:30;;;;;;;2.30;1.40;;;;;;;27.62;16.82;99920.39;109579;1253;76490;-70
2023/05/10 07:44:57;;;;;;;2.90;1.20;;;;;;;27.87;16.07;99923.81;109509;1253;68693;-70
2023/05/10 07:47:24;;;;;;;2.50;1.30;;;;;;;27.71;16.04;99917.23;109498;1253;73219;-72
2023/05/10 07:49:51;;;;;;;4.20;1.60;;;;;;;27.66;16.29;99920.77;109604;1254;60313;-69
2023/05/10 07:52:17;;;;;;;1.60;1.20;;;;;;;27.40;15.93;99919.30;109595;1254;61387;-69
2023/05/10 07:54:47;;;;;;;1.50;1.10;;;;;;;27.10;16.25;99920.98;109535;1252;76841;-68
2023/05/10 07:57:17;;;;;;;2.70;0.90;;;;;;;27.14;16.37;99918.54;109559;1253;66513;-70
2023/05/10 07:59:44;;;;;;;4.30;1.10;;;;;;;27.57;15.93;99914.70;109585;1251;72894;-70
2023/05/10 08:02:11;;;;;;;3.20;1.20;;;;;;;28.14;15.45;99919.45;109535;1253;60569;-70
2023/05/10 08:04:38;;;;;;;1.20;1.10;;;;;;;28.36;15.28;99914.41;109621;1252;62300;-69
2023/05/10 08:07:05;;;;;;;4.90;1.20;;;;;;;28.68;15.01;99911.47;109447;1253;76250;-71
2023/05/10 08:09:31;;;;;;;1.80;1.20;;;;;;;29.01;14.89;99912.29;109522;1253;69604;-70
2023/05/10 08:11:59;;;;;;;9.20;1.40;;;;;;;29.23;14.53;99909.02;109467;1253;72094;-72
2023/05/10 08:14:28;;;;;;;2.50;1.10;;;;;;;28.85;14.59;99908.00;109510;1253;59583;-70
2023/05/10 08:16:55;;;;;;;4.70;1.30;;;;;;;27.63;14.81;99916.25;109469;1253;61470;-70
2023/05/10 08:19:22;;;;;;;1.50;1.10;;;;;;;26.35;16.03;99918.98;109571;1252;75892;-69
2023/05/10 08:21:49;;;;;;;3.30;1.20;;;;;;;26.27;16.38;99915.20;109551;1252;67980;-71
2023/05/10 08:24:16;;;;;;;3.70;1.20;;;;;;;26.84;16.05;99908.95;109485;1253;71480;-69
2023/05/10 08:26:42;;;;;;;2.90;1.10;;;;;;;26.92;15.72;99905.99;109523;1252;59013;-71
2023/05/10 08:29:09;;;;;;;1.20;0.90;;;;;;;26.69;15.88;99903.38;109488;1253;62266;-68
2023/05/10 08:31:36;;;;;;;1.70;1.20;;;;;;;27.43;15.75;99902.85;109578;1253;76915;-71
2023/05/10 08:34:03;;;;;;;2.60;1.40;;;;;;;27.11;15.23;99911.80;109548;1253;70605;-66
2023/05/10 08:36:31;;;;;;;1.50;0.90;;;;;;;26.09;15.85;99912.55;109534;1252;73450;-68
2023/05/10 08:38:58;;;;;;;0.90;0.90;;;;;;;25.99;16.25;99905.79;109516;1253;60892;-70
2023/05/10 08:41:25;;;;;;;5.10;1.30;;;;;;;25.55;16.59;99916.67;109388;1252;58958;-69
2023/05/10 08:43:53;;;;;;;1.40;1.10;;;;;;;24.77;17.01;99916.69;109459;1254;75740;-71
2023/05/10 08:46:20;;;;;;;3.20;1.30;;;;;;;23.84;17.56;99916.89;109546;1253;70662;-73
2023/05/10 08:48:48;;;;;;;1.00;0.90;;;;;;;23.02;18.15;99920.23;109543;1252;71093;-70
2023/05/10 08:51:18;;;;;;;1.70;1.10;;;;;;;22.60;18.22;99918.05;109520;1253;61568;-71
2023/05/10 08:53:45;;;;;;;2.50;1.20;;;;;;;21.74;18.65;99927.27;109581;1253;60434;-70
2023/05/10 08:56:12;;;;;;;1.90;1.30;;;;;;;20.94;19.56;99921.67;109585;1252;76961;-70
2023/05/10 08:58:39;;;;;;;4.00;1.30;;;;;;;20.35;19.89;99919.14;109528;1253;70044;-69
2023/05/10 09:01:06;;;;;;;2.80;1.40;;;;;;;19.87;20.60;99920.37;109559;1253;74745;-69
2023/05/10 09:03:33;;;;;;;3.70;1.20;;;;;;;19.40;21.51;99924.63;109467;1252;60227;-71
2023/05/10 09:05:59;;;;;;;2.10;1.00;;;;;;;19.00;21.94;99927.95;109458;1253;60545;-68
2023/05/10 09:08:26;;;;;;;2.00;1.30;;;;;;;18.60;22.39;99932.06;109477;1253;77011;-72
2023/05/10 09:10:54;;;;;;;1.10;1.00;;;;;;;18.16;23.00;99934.46;109388;1253;67608;-69
2023/05/10 09:13:21;;;;;;;1.90;0.90;;;;;;;17.91;23.23;99929.83;109297;1254;72742;-70
2023/05/10 09:15:48;;;;;;;3.20;1.10;;;;;;;18.20;23.24;99927.63;109385;1253;61780;-70
2023/05/10 09:18:15;;;;;;;1.70;1.30;;;;;;;18.35;22.86;99921.52;109376;1252;231761;-72
2023/05/10 09:20:42;;;;;;;1.50;1.00;;;;;;;18.26;23.12;99923.34;109447;1253;76459;-72
2023/05/10 09:23:09;;;;;;;1.20;1.10;;;;;;;17.95;23.60;99920.23;109512;1253;69985;-69
2023/05/10 09:25:37;;;;;;;1.70;1.10;;;;;;;17.64;24.36;99923.60;109317;1254;73543;-71
2023/05/10 09:28:06;;;;;;;3.00;1.10;;;;;;;17.41;24.38;99928.15;109330;1254;60877;-72
2023/05/10 09:30:33;;;;;;;1.40;1.10;;;;;;;17.21;24.57;99922.55;109311;1253;60322;-70
2023/05/10 09:33:00;;;;;;;5.20;1.00;;;;;;;17.11;24.51;99925.71;109610;1251;76865;-69
2023/05/10 09:35:29;;;;;;;1.60;1.00;;;;;;;17.05;24.95;99926.98;109476;1253;69490;-70
2023/05/10 09:37:57;;;;;;;1.30;1.20;;;;;;;17.00;25.41;99928.98;109561;1253;73547;-69
2023/05/10 09:40:25;;;;;;;1.50;1.20;;;;;;;17.00;25.79;99932.98;109529;1252;62457;-69
2023/05/10 09:42:58;;;;;;;3.20;1.20;;;;;;;17.20;25.49;99925.20;109458;1253;60670;-73
2023/05/10 09:45:35;;;;;;;2.80;1.10;;;;;;;18.01;25.04;99920.39;109431;1253;76851;-71
2023/05/10 09:48:04;;;;;;;1.90;1.30;;;;;;;18.52;24.28;99917.81;109448;1253;67925;-68
2023/05/10 09:50:31;;;;;;;6.00;0.90;;;;;;;18.85;23.64;99909.23;109550;1252;74785;-69
2023/05/10 09:53:00;;;;;;;3.00;1.00;;;;;;;19.18;23.41;99907.27;109308;1253;62475;-69
2023/05/10 09:55:46;;;;;;;1.50;1.00;;;;;;;19.54;22.90;99908.40;109553;1253;61612;-69
2023/05/10 09:58:13;;;;;;;5.10;1.10;;;;;;;20.78;22.23;99905.91;109426;1253;74623;-68
2023/05/10 10:00:42;;;;;;;4.10;1.00;;;;;;;22.54;20.94;99897.79;109471;1253;69398;-72
2023/05/10 10:03:14;;;;;;;3.00;1.40;;;;;;;23.24;19.91;99898.14;109557;1252;72357;-69
2023/05/10 10:05:43;;;;;;;3.80;1.20;;;;;;;23.39;19.69;99895.81;109540;1253;60128;-68
2023/05/10 10:08:12;;;;;;;2.60;0.90;;;;;;;24.67;18.81;99888.29;109492;1253;62528;-68
2023/05/10 10:10:40;;;;;;;3.10;1.00;;;;;;;26.35;17.57;99882.94;109498;1253;76867;-67
2023/05/10 10:13:07;;;;;;;1.20;0.90;;;;;;;27.36;16.56;99876.34;109514;1253;69959;-67
2023/05/10 10:15:34;;;;;;;2.00;1.10;;;;;;;27.24;16.20;99873.80;109443;1253;73599;-68
2023/05/10 10:18:01;;;;;;;4.50;1.50;;;;;;;26.49;16.47;99873.67;109425;1252;59050;-69
2023/05/10 10:20:28;;;;;;;1.00;0.90;;;;;;;25.71;17.25;99872.46;109530;1253;59509;-68
2023/05/10 10:22:55;;;;;;;2.00;1.30;;;;;;;25.11;17.91;99873.65;109501;1253;75240;-69
2023/05/10 10:25:21;;;;;;;1.20;1.10;;;;;;;24.78;18.50;99873.94;109491;1252;68665;-69
2023/05/10 10:27:51;;;;;;;1.20;1.10;;;;;;;24.25;18.12;99871.71;109478;1253;72515;-70
2023/05/10 10:30:37;;;;;;;5.60;1.20;;;;;;;23.65;18.82;99869.25;109448;1253;62514;-69
2023/05/10 10:33:17;;;;;;;2.30;0.80;;;;;;;22.85;19.28;99867.94;109572;1252;63569;-68
2023/05/10 10:35:54;;;;;;;3.50;1.60;;;;;;;22.31;19.71;99868.59;109533;1253;75764;-69
2023/05/10 10:38:22;;;;;;;1.60;1.20;;;;;;;21.67;20.25;99872.75;109410;1252;68164;-65
2023/05/10 10:40:57;;;;;;;5.80;1.60;;;;;;;21.05;21.00;99875.59;109448;1254;72577;-69
2023/05/10 10:43:27;;;;;;;6.80;1.50;;;;;;;20.50;21.18;99874.69;109273;1253;59368;-72
2023/05/10 10:46:13;;;;;;;2.70;1.00;;;;;;;19.94;21.62;99870.58;109549;1252;61533;-69
2023/05/10 10:48:41;;;;;;;2.10;0.90;;;;;;;19.42;22.21;99867.84;109511;1253;77208;-69
2023/05/10 10:51:08;;;;;;;2.10;1.10;;;;;;;19.04;22.60;99865.80;109554;1252;70084;-64
2023/05/10 10:53:39;;;;;;;1.60;1.00;;;;;;;18.72;23.14;99863.91;109408;1255;75431;-68
2023/05/10 10:56:10;;;;;;;1.60;1.20;;;;;;;18.63;23.75;99861.92;109411;1254;60997;-70
2023/05/10 10:58:38;;;;;;;2.50;1.00;;;;;;;18.78;24.21;99857.05;109531;1253;61288;-69
2023/05/10 11:01:11;;;;;;;4.40;1.10;;;;;;;19.10;23.72;99850.83;109557;1253;75458;-68
2023/05/10 11:03:38;;;;;;;6.00;1.60;;;;;;;19.44;23.06;99845.45;109488;1253;70351;-68
2023/05/10 11:06:05;;;;;;;2.40;1.40;;;;;;;19.72;22.87;99839.96;109405;1253;72222;-68
2023/05/10 11:08:32;;;;;;;5.20;1.20;;;;;;;19.88;22.37;99841.08;109476;1252;62709;-69
2023/05/10 11:11:04;;;;;;;1.50;0.90;;;;;;;19.86;22.66;99840.31;109493;1253;64160;-68
2023/05/10 11:13:38;;;;;;;10.80;1.90;;;;;;;19.77;23.00;99834.08;109515;1252;76551;-68
2023/05/10 11:16:14;;;;;;;1.20;1.10;;;;;;;19.73;23.44;99835.31;109545;1252;69350;-70
2023/05/10 11:18:40;;;;;;;;;;;;;;;19.71;23.12;99843.71;109493;1252;71533;-67
2023/05/10 11:21:11;;;;;;;17.50;1.80;;;;;;;19.50;22.85;99842.22;109308;1253;62321;-68
2023/05/10 11:23:57;;;;;;;1.50;1.10;;;;;;;19.31;23.32;99840.79;109478;1252;62263;-69
2023/05/10 11:26:25;;;;;;;1.30;0.90;;;;;;;19.11;23.33;99836.36;109453;1253;75017;-66
2023/05/10 11:28:56;;;;;;;1.20;1.10;;;;;;;18.88;23.45;99837.68;109509;1252;70237;-68
2023/05/10 11:31:23;;;;;;;2.60;1.00;;;;;;;18.65;23.49;99836.88;109483;1252;71467;-67
2023/05/10 11:33:51;;;;;;;2.80;1.20;;;;;;;18.27;23.73;99846.45;109505;1253;61805;-66